createdAt,value
2017-12-02T00:01:48.022Z,-0.40
2017-12-02T00:04:14.963Z,-0.30
2017-12-02T00:06:41.344Z,-0.30
2017-12-02T00:09:14.595Z,-0.30
2017-12-02T00:11:41.727Z,-0.50
2017-12-02T00:14:08.057Z,-0.50
2017-12-02T00:16:35.203Z,3.30
2017-12-02T00:19:01.652Z,3.20
2017-12-02T00:21:28.785Z,1.10
2017-12-02T00:23:55.148Z,1.00
2017-12-02T00:26:21.535Z,0.40
2017-12-02T00:28:47.935Z,-0.10
2017-12-02T00:31:14.294Z,-0.10
2017-12-02T00:33:40.631Z,-0.40
2017-12-02T00:36:07.994Z,-0.30
2017-12-02T00:38:34.427Z,-0.20
2017-12-02T00:41:00.788Z,-0.20
2017-12-02T00:43:27.885Z,-0.20
2017-12-02T00:45:54.277Z,-0.20
2017-12-02T00:48:21.364Z,-0.20
2017-12-02T00:50:48.679Z,-0.20
2017-12-02T00:53:15.090Z,-0.20
2017-12-02T00:55:42.219Z,-0.10
2017-12-02T00:58:09.619Z,-0.10
2017-12-02T01:00:35.999Z,0.00
2017-12-02T01:03:02.335Z,0.00
2017-12-02T01:05:28.707Z,0.00
2017-12-02T01:07:55.827Z,-0.30
2017-12-02T01:10:22.235Z,-0.30
2017-12-02T01:12:48.598Z,-0.40
2017-12-02T01:15:14.947Z,-0.60
2017-12-02T01:17:42.140Z,-0.50
2017-12-02T01:20:08.510Z,-0.50
2017-12-02T01:22:35.622Z,-0.40
2017-12-02T01:25:02.024Z,-0.40
2017-12-02T01:27:28.354Z,-0.20
2017-12-02T01:29:54.756Z,-0.20
2017-12-02T01:32:21.868Z,-0.30
2017-12-02T01:34:48.261Z,-0.30
2017-12-02T01:37:15.749Z,-0.30
2017-12-02T01:39:42.126Z,-0.40
2017-12-02T01:42:09.212Z,-0.30
2017-12-02T01:44:35.635Z,-0.30
2017-12-02T01:47:03.426Z,-0.30
2017-12-02T01:49:29.799Z,-0.20
2017-12-02T01:51:56.931Z,-0.10
2017-12-02T01:54:23.283Z,-0.20
2017-12-02T01:56:50.405Z,-0.20
2017-12-02T01:59:16.747Z,-0.20
2017-12-02T02:01:43.129Z,-0.10
2017-12-02T02:04:09.516Z,-0.20
2017-12-02T02:06:36.623Z,-0.10
2017-12-02T02:09:04.099Z,-0.10
2017-12-02T02:11:30.480Z,0.00
2017-12-02T02:13:56.856Z,-0.20
2017-12-02T02:16:23.219Z,-0.40
2017-12-02T02:18:50.347Z,0.00
2017-12-02T02:21:16.703Z,0.00
2017-12-02T02:23:43.778Z,0.00
2017-12-02T02:26:10.911Z,0.10
2017-12-02T02:28:38.278Z,0.00
2017-12-02T02:31:04.668Z,-0.30
2017-12-02T02:33:31.009Z,-0.20
2017-12-02T02:35:58.197Z,0.10
2017-12-02T02:38:24.539Z,0.10
2017-12-02T02:40:50.903Z,0.20
2017-12-02T02:43:17.272Z,0.20
2017-12-02T02:45:43.667Z,0.10
2017-12-02T02:48:11.266Z,0.20
2017-12-02T02:50:39.876Z,0.20
2017-12-02T02:53:06.259Z,0.20
2017-12-02T02:55:33.388Z,0.20
2017-12-02T02:57:59.760Z,0.20
2017-12-02T03:00:26.098Z,0.30
2017-12-02T03:02:55.087Z,0.30
2017-12-02T03:05:21.428Z,0.20
2017-12-02T03:07:49.227Z,0.20
2017-12-02T03:10:17.299Z,0.20
2017-12-02T03:12:46.779Z,0.30
2017-12-02T03:15:16.639Z,0.30
2017-12-02T03:17:44.775Z,0.30
2017-12-02T03:20:12.170Z,0.30
2017-12-02T03:22:39.570Z,0.00
2017-12-02T03:25:05.944Z,0.00
2017-12-02T03:27:32.364Z,0.10
2017-12-02T03:29:59.327Z,0.10
2017-12-02T03:35:24.415Z,0.20
2017-12-02T03:37:51.176Z,0.20
2017-12-02T03:40:19.243Z,0.30
2017-12-02T03:42:46.295Z,0.30
2017-12-02T03:45:14.829Z,0.40
2017-12-02T03:47:41.791Z,0.10
2017-12-02T03:50:10.852Z,0.20
2017-12-02T03:52:39.680Z,0.30
2017-12-02T03:55:06.727Z,0.10
2017-12-02T03:57:34.058Z,0.20
2017-12-02T04:00:00.484Z,0.00
2017-12-02T04:02:27.437Z,0.10
2017-12-02T04:04:53.986Z,0.10
2017-12-02T04:09:58.575Z,0.00
2017-12-02T04:12:26.250Z,0.10
2017-12-02T04:14:53.785Z,0.10
2017-12-02T04:17:22.121Z,0.10
2017-12-02T04:19:50.910Z,0.10
2017-12-02T04:22:17.387Z,0.10
2017-12-02T04:24:44.515Z,0.20
2017-12-02T04:27:12.556Z,0.20
2017-12-02T04:29:40.479Z,0.20
2017-12-02T04:32:10.145Z,0.30
2017-12-02T04:34:37.847Z,0.30
2017-12-02T04:37:04.923Z,0.30
2017-12-02T04:39:32.207Z,0.40
2017-12-02T04:41:59.059Z,0.40
2017-12-02T04:44:26.507Z,0.40
2017-12-02T04:46:52.862Z,0.50
2017-12-02T04:49:19.276Z,0.50
2017-12-02T04:51:45.663Z,0.40
2017-12-02T04:54:13.102Z,0.40
2017-12-02T04:56:40.572Z,0.40
2017-12-02T04:59:06.932Z,0.40
2017-12-02T05:01:33.336Z,0.30
2017-12-02T05:03:59.707Z,0.40
2017-12-02T05:06:27.243Z,0.40
2017-12-02T05:08:54.418Z,0.40
2017-12-02T05:11:20.799Z,0.10
2017-12-02T05:13:54.120Z,0.20
2017-12-02T05:16:23.780Z,0.40
2017-12-02T05:18:52.740Z,0.50
2017-12-02T05:21:20.060Z,0.60
2017-12-02T05:23:50.227Z,0.60
2017-12-02T05:26:20.098Z,0.50
2017-12-02T05:28:49.033Z,0.60
2017-12-02T05:31:16.251Z,0.60
2017-12-02T05:33:43.594Z,0.60
2017-12-02T05:36:13.727Z,0.50
2017-12-02T05:38:44.330Z,0.60
2017-12-02T05:41:10.677Z,0.60
2017-12-02T05:43:38.031Z,0.40
2017-12-02T05:46:06.431Z,0.20
2017-12-02T05:48:33.401Z,0.30
2017-12-02T05:51:01.952Z,0.40
2017-12-02T05:53:28.303Z,0.40
2017-12-02T05:55:55.748Z,0.50
2017-12-02T05:58:22.591Z,0.50
2017-12-02T06:00:48.968Z,0.40
2017-12-02T06:03:16.268Z,0.30
2017-12-02T06:05:42.615Z,0.30
2017-12-02T06:08:08.984Z,0.40
2017-12-02T06:10:36.087Z,0.20
2017-12-02T06:13:02.482Z,0.20
2017-12-02T06:15:30.440Z,0.20
2017-12-02T06:17:56.854Z,0.30
2017-12-02T06:20:24.611Z,0.30
2017-12-02T06:22:51.147Z,0.30
2017-12-02T06:25:17.696Z,0.10
2017-12-02T06:27:45.003Z,0.10
2017-12-02T06:30:11.475Z,0.10
2017-12-02T06:32:39.048Z,0.10
2017-12-02T06:35:06.442Z,0.00
2017-12-02T06:37:35.687Z,0.20
2017-12-02T06:40:02.794Z,0.30
2017-12-02T06:42:29.178Z,0.30
2017-12-02T06:44:55.551Z,0.20
2017-12-02T06:47:21.955Z,0.00
2017-12-02T06:49:49.232Z,0.00
2017-12-02T06:52:15.728Z,0.10
2017-12-02T06:54:42.718Z,0.20
2017-12-02T06:57:09.089Z,0.30
2017-12-02T06:59:36.208Z,0.20
2017-12-02T07:02:02.626Z,0.20
2017-12-02T07:04:29.040Z,0.20
2017-12-02T07:06:56.170Z,0.20
2017-12-02T07:09:23.442Z,0.10
2017-12-02T07:11:49.827Z,0.10
2017-12-02T07:14:16.238Z,0.10
2017-12-02T07:16:42.618Z,-0.10
2017-12-02T07:19:09.140Z,-0.10
2017-12-02T07:21:36.290Z,0.00
2017-12-02T07:24:03.441Z,0.10
2017-12-02T07:26:31.632Z,0.10
2017-12-02T07:28:57.987Z,0.10
2017-12-02T07:31:24.375Z,0.10
2017-12-02T07:33:52.442Z,0.00
2017-12-02T07:36:19.765Z,0.00
2017-12-02T07:38:46.162Z,0.00
2017-12-02T07:41:13.070Z,0.00
2017-12-02T07:43:40.220Z,0.00
2017-12-02T07:46:08.347Z,0.00
2017-12-02T07:48:42.799Z,0.00
2017-12-02T07:51:11.255Z,0.00
2017-12-02T07:53:37.655Z,0.00
2017-12-02T07:56:04.386Z,0.00
2017-12-02T07:58:31.301Z,0.00
2017-12-02T08:00:59.786Z,-0.10
2017-12-02T08:03:26.151Z,-0.10
2017-12-02T08:05:54.090Z,0.00
2017-12-02T08:08:20.463Z,-0.10
2017-12-02T08:10:47.363Z,0.00
2017-12-02T08:13:16.871Z,0.00
2017-12-02T08:15:45.148Z,0.10
2017-12-02T08:18:12.046Z,0.10
2017-12-02T08:20:38.482Z,0.10
2017-12-02T08:23:06.232Z,0.00
2017-12-02T08:25:33.292Z,0.10
2017-12-02T08:28:00.446Z,-0.10
2017-12-02T08:30:26.893Z,0.00
2017-12-02T08:32:53.315Z,0.00
2017-12-02T08:35:19.680Z,0.00
2017-12-02T08:37:46.064Z,0.00
2017-12-02T08:40:14.020Z,0.20
2017-12-02T08:42:40.399Z,0.10
2017-12-02T08:45:09.307Z,0.20
2017-12-02T08:47:35.804Z,0.20
2017-12-02T08:50:05.067Z,0.20
2017-12-02T08:52:32.243Z,0.30
2017-12-02T08:54:59.867Z,0.50
2017-12-02T08:57:26.231Z,0.50
2017-12-02T08:59:53.283Z,0.50
2017-12-02T09:02:24.376Z,0.40
2017-12-02T09:04:51.650Z,0.60
2017-12-02T09:07:18.715Z,0.70
2017-12-02T09:09:47.741Z,0.80
2017-12-02T09:12:16.094Z,0.80
2017-12-02T09:14:43.126Z,0.80
2017-12-02T09:17:10.416Z,1.00
2017-12-02T09:19:39.136Z,1.10
2017-12-02T09:22:05.507Z,1.10
2017-12-02T09:24:34.854Z,1.30
2017-12-02T09:27:02.967Z,1.50
2017-12-02T09:29:31.640Z,1.50
2017-12-02T09:31:58.301Z,1.60
2017-12-02T09:34:26.091Z,1.80
2017-12-02T09:36:53.645Z,1.80
2017-12-02T09:39:20.811Z,1.90
2017-12-02T09:41:47.896Z,2.10
2017-12-02T09:44:15.076Z,2.00
2017-12-02T09:46:41.427Z,2.20
2017-12-02T09:49:08.531Z,2.40
2017-12-02T09:51:35.327Z,2.40
2017-12-02T09:54:01.699Z,2.40
2017-12-02T09:56:28.068Z,2.20
2017-12-02T09:58:54.507Z,2.20
2017-12-02T10:01:21.656Z,2.50
2017-12-02T10:03:47.995Z,2.50
2017-12-02T10:06:15.079Z,2.50
2017-12-02T10:08:42.466Z,2.40
2017-12-02T10:11:08.803Z,2.40
2017-12-02T10:13:35.198Z,2.60
2017-12-02T10:16:01.585Z,2.80
2017-12-02T10:18:27.922Z,2.80
2017-12-02T10:20:55.035Z,3.00
2017-12-02T10:23:21.438Z,3.00
2017-12-02T10:25:47.878Z,2.90
2017-12-02T10:28:14.387Z,2.80
2017-12-02T10:30:42.942Z,2.60
2017-12-02T10:33:13.439Z,2.70
2017-12-02T10:35:40.929Z,2.70
2017-12-02T10:38:10.976Z,3.00
2017-12-02T10:40:37.367Z,2.90
2017-12-02T10:43:04.556Z,3.00
2017-12-02T10:45:30.903Z,3.00
2017-12-02T10:47:57.282Z,2.80
2017-12-02T10:50:25.603Z,2.80
2017-12-02T10:52:52.774Z,2.80
2017-12-02T10:55:19.193Z,2.80
2017-12-02T10:57:48.292Z,2.60
2017-12-02T11:00:16.424Z,2.40
2017-12-02T11:02:42.864Z,2.40
2017-12-02T11:05:11.204Z,2.60
2017-12-02T11:07:38.547Z,2.90
2017-12-02T11:10:05.054Z,3.00
2017-12-02T11:12:32.336Z,2.90
2017-12-02T11:15:06.485Z,2.90
2017-12-02T11:17:33.584Z,2.90
2017-12-02T11:20:01.329Z,2.90
2017-12-02T11:22:27.735Z,3.10
2017-12-02T11:24:54.882Z,3.00
2017-12-02T11:27:22.136Z,3.20
2017-12-02T11:29:49.340Z,3.50
2017-12-02T11:32:16.808Z,3.50
2017-12-02T11:34:44.183Z,3.30
2017-12-02T11:37:11.327Z,3.40
2017-12-02T11:39:39.534Z,3.40
2017-12-02T11:42:06.654Z,3.50
2017-12-02T11:44:33.811Z,3.10
2017-12-02T11:47:00.918Z,3.20
2017-12-02T11:49:27.320Z,3.20
2017-12-02T11:51:53.971Z,3.00
2017-12-02T11:54:20.363Z,2.80
2017-12-02T11:56:48.492Z,3.30
2017-12-02T11:59:14.872Z,3.30
2017-12-02T12:01:41.995Z,3.40
2017-12-02T12:04:08.413Z,3.40
2017-12-02T12:06:37.318Z,3.80
2017-12-02T12:09:03.756Z,3.80
2017-12-02T12:11:30.893Z,3.70
2017-12-02T12:13:58.107Z,3.60
2017-12-02T12:16:24.875Z,3.60
2017-12-02T12:18:51.294Z,3.80
2017-12-02T12:21:17.691Z,4.00
2017-12-02T12:23:44.152Z,3.70
2017-12-02T12:26:10.572Z,3.50
2017-12-02T12:28:37.747Z,3.40
2017-12-02T12:31:04.171Z,3.40
2017-12-02T12:33:30.921Z,3.60
2017-12-02T12:35:57.291Z,3.50
2017-12-02T12:38:24.995Z,3.40
2017-12-02T12:40:51.398Z,3.40
2017-12-02T12:43:17.839Z,3.40
2017-12-02T12:45:44.235Z,3.70
2017-12-02T12:48:12.012Z,3.90
2017-12-02T12:50:39.233Z,3.90
2017-12-02T12:53:06.050Z,3.80
2017-12-02T12:55:32.463Z,4.10
2017-12-02T12:57:58.884Z,3.90
2017-12-02T13:00:25.319Z,3.90
2017-12-02T13:02:54.347Z,4.10
2017-12-02T13:05:21.220Z,4.30
2017-12-02T13:07:47.618Z,4.40
2017-12-02T13:10:21.092Z,4.20
2017-12-02T13:12:49.475Z,3.80
2017-12-02T13:15:16.548Z,3.70
2017-12-02T13:17:44.930Z,3.90
2017-12-02T13:20:11.311Z,4.20
2017-12-02T13:22:37.681Z,4.50
2017-12-02T13:25:06.619Z,4.70
2017-12-02T13:27:34.057Z,4.70
2017-12-02T13:30:00.511Z,4.30
2017-12-02T13:32:31.452Z,4.30
2017-12-02T13:34:59.712Z,4.40
2017-12-02T13:37:27.092Z,5.20
2017-12-02T13:39:53.486Z,5.20
2017-12-02T13:42:19.986Z,4.30
2017-12-02T13:44:46.416Z,3.80
2017-12-02T13:47:14.230Z,3.70
2017-12-02T13:49:41.348Z,3.40
2017-12-02T13:52:09.767Z,3.40
2017-12-02T13:54:37.195Z,3.30
2017-12-02T13:57:03.615Z,3.30
2017-12-02T13:59:34.244Z,2.90
2017-12-02T14:02:02.566Z,2.90
2017-12-02T14:04:28.914Z,2.60
2017-12-02T14:06:56.664Z,2.70
2017-12-02T14:09:24.818Z,2.60
2017-12-02T14:14:53.621Z,2.40
2017-12-02T14:17:20.503Z,2.30
2017-12-02T14:19:47.795Z,2.40
2017-12-02T14:22:15.812Z,2.50
2017-12-02T14:24:42.447Z,2.40
2017-12-02T14:27:09.606Z,2.40
2017-12-02T14:29:39.548Z,2.30
2017-12-02T14:32:05.956Z,2.30
2017-12-02T14:34:32.432Z,2.20
2017-12-02T14:37:01.095Z,2.20
2017-12-02T14:39:30.252Z,2.20
2017-12-02T14:41:57.472Z,2.20
2017-12-02T14:44:25.139Z,2.20
2017-12-02T14:46:53.753Z,2.30
2017-12-02T14:49:20.147Z,2.20
2017-12-02T14:51:46.662Z,2.10
2017-12-02T14:54:14.196Z,2.20
2017-12-02T14:56:40.594Z,2.10
2017-12-02T14:59:07.759Z,1.80
2017-12-02T15:01:34.155Z,1.80
2017-12-02T15:04:01.508Z,1.90
2017-12-02T15:06:29.392Z,1.80
2017-12-02T15:08:56.592Z,2.00
2017-12-02T15:11:23.864Z,2.00
2017-12-02T15:13:50.284Z,2.10
2017-12-02T15:16:16.819Z,2.00
2017-12-02T15:18:43.244Z,2.20
2017-12-02T15:21:09.694Z,1.90
2017-12-02T15:23:36.103Z,1.90
2017-12-02T15:26:03.568Z,1.90
2017-12-02T15:31:03.839Z,1.80
2017-12-02T15:33:30.355Z,1.70
2017-12-02T15:35:57.427Z,1.70
2017-12-02T15:38:23.799Z,1.60
2017-12-02T15:40:52.564Z,1.60
2017-12-02T15:43:19.763Z,1.50
2017-12-02T15:45:46.372Z,1.50
2017-12-02T15:48:12.815Z,1.40
2017-12-02T15:50:39.575Z,1.20
2017-12-02T15:53:05.983Z,1.10
2017-12-02T15:55:32.391Z,1.00
2017-12-02T15:57:59.798Z,1.00
2017-12-02T16:00:27.272Z,1.00
2017-12-02T16:02:53.710Z,1.10
2017-12-02T16:05:20.088Z,1.10
2017-12-02T16:07:47.423Z,1.10
2017-12-02T16:10:13.871Z,1.10
2017-12-02T16:12:40.327Z,1.00
2017-12-02T16:15:08.839Z,0.90
2017-12-02T16:17:35.663Z,1.00
2017-12-02T16:20:03.074Z,1.00
2017-12-02T16:22:29.481Z,1.00
2017-12-02T16:24:55.910Z,1.10
2017-12-02T16:27:22.340Z,1.10
2017-12-02T16:29:48.759Z,1.10
2017-12-02T16:32:15.991Z,1.10
2017-12-02T16:34:42.408Z,1.00
2017-12-02T16:37:09.664Z,0.80
2017-12-02T16:39:36.832Z,0.70
2017-12-02T16:42:03.243Z,0.60
2017-12-02T16:44:30.424Z,0.90
2017-12-02T16:46:56.861Z,0.80
2017-12-02T16:49:23.267Z,0.90
2017-12-02T16:51:50.514Z,0.80
2017-12-02T16:54:17.944Z,0.80
2017-12-02T16:56:44.406Z,0.80
2017-12-02T16:59:12.547Z,0.70
2017-12-02T17:01:39.038Z,0.70
2017-12-02T17:04:05.473Z,0.80
2017-12-02T17:06:31.875Z,0.80
2017-12-02T17:09:00.265Z,0.90
2017-12-02T17:11:26.716Z,0.90
2017-12-02T17:13:53.297Z,0.80
2017-12-02T17:16:20.285Z,0.80
2017-12-02T17:18:46.942Z,0.70
2017-12-02T17:21:13.351Z,0.70
2017-12-02T17:23:39.786Z,0.70
2017-12-02T17:26:06.969Z,0.70
2017-12-02T17:28:33.535Z,0.70
2017-12-02T17:31:00.004Z,0.70
2017-12-02T17:33:26.444Z,0.70
2017-12-02T17:35:53.903Z,0.70
2017-12-02T17:38:21.673Z,0.70
2017-12-02T17:40:48.076Z,0.70
2017-12-02T17:43:15.251Z,0.70
2017-12-02T17:45:41.912Z,0.70
2017-12-02T17:48:08.419Z,0.60
2017-12-02T17:50:35.804Z,0.70
2017-12-02T17:53:02.203Z,0.70
2017-12-02T17:55:28.614Z,0.70
2017-12-02T17:57:55.752Z,0.80
2017-12-02T18:00:22.876Z,0.80
2017-12-02T18:02:50.310Z,0.80
2017-12-02T18:05:17.668Z,0.80
2017-12-02T18:07:44.096Z,0.50
2017-12-02T18:10:10.491Z,0.50
2017-12-02T18:12:36.901Z,0.60
2017-12-02T18:15:04.019Z,0.80
2017-12-02T18:17:30.663Z,0.80
2017-12-02T18:19:57.042Z,0.90
2017-12-02T18:22:23.403Z,0.80
2017-12-02T18:24:52.352Z,0.90
2017-12-02T18:27:19.492Z,0.80
2017-12-02T18:29:46.635Z,0.80
2017-12-02T18:32:13.018Z,0.80
2017-12-02T18:34:40.423Z,0.90
2017-12-02T18:37:07.568Z,0.90
2017-12-02T18:39:33.952Z,0.80
2017-12-02T18:42:00.351Z,0.80
2017-12-02T18:44:27.646Z,0.80
2017-12-02T18:46:55.122Z,0.80
2017-12-02T18:49:21.521Z,0.70
2017-12-02T18:51:47.979Z,0.60
2017-12-02T18:54:14.424Z,0.60
2017-12-02T18:56:40.839Z,0.70
2017-12-02T18:59:07.215Z,0.70
2017-12-02T19:01:34.343Z,0.80
2017-12-02T19:04:00.755Z,0.70
2017-12-02T19:06:27.106Z,0.70
2017-12-02T19:08:53.475Z,0.60
2017-12-02T19:11:19.827Z,0.40
2017-12-02T19:13:46.206Z,0.20
2017-12-02T19:16:12.584Z,0.20
2017-12-02T19:18:38.945Z,0.20
2017-12-02T19:21:05.359Z,0.30
2017-12-02T19:23:31.738Z,0.20
2017-12-02T19:25:58.835Z,0.20
2017-12-02T19:28:26.184Z,0.20
2017-12-02T19:30:52.574Z,0.20
2017-12-02T19:33:19.684Z,0.10
2017-12-02T19:35:46.047Z,0.10
2017-12-02T19:38:13.173Z,0.10
2017-12-02T19:40:39.526Z,0.10
2017-12-02T19:43:06.654Z,0.00
2017-12-02T19:45:33.031Z,0.00
2017-12-02T19:47:59.441Z,0.00
2017-12-02T19:50:26.558Z,0.00
2017-12-02T19:52:53.140Z,0.00
2017-12-02T19:55:20.563Z,0.00
2017-12-02T19:57:46.911Z,-0.10
2017-12-02T20:00:14.295Z,-0.20
2017-12-02T20:02:40.716Z,-0.20
2017-12-02T20:05:07.159Z,-0.10
2017-12-02T20:07:33.784Z,0.00
2017-12-02T20:10:00.174Z,0.00
2017-12-02T20:12:26.595Z,0.00
2017-12-02T20:14:52.986Z,0.00
2017-12-02T20:17:19.489Z,0.00
2017-12-02T20:19:46.652Z,-0.20
2017-12-02T20:22:13.846Z,0.00
2017-12-02T20:24:40.300Z,0.00
2017-12-02T20:27:06.786Z,0.20
2017-12-02T20:29:33.208Z,0.20
2017-12-02T20:31:59.620Z,0.20
2017-12-02T20:34:25.979Z,0.20
2017-12-02T20:36:52.347Z,0.20
2017-12-02T20:39:18.784Z,0.10
2017-12-02T20:41:45.144Z,0.00
2017-12-02T20:44:11.560Z,0.00
2017-12-02T20:46:37.944Z,0.00
2017-12-02T20:49:04.347Z,0.00
2017-12-02T20:51:31.455Z,-0.30
2017-12-02T20:53:57.847Z,-0.30
2017-12-02T20:56:24.519Z,-0.20
2017-12-02T20:58:50.957Z,-0.20
2017-12-02T21:01:17.493Z,-0.30
2017-12-02T21:03:45.204Z,-0.20
2017-12-02T21:06:12.526Z,-0.10
2017-12-02T21:08:41.142Z,-0.10
2017-12-02T21:11:10.443Z,-0.10
2017-12-02T21:13:40.893Z,0.00
2017-12-02T21:16:07.279Z,0.00
2017-12-02T21:18:33.638Z,-0.10
2017-12-02T21:21:00.458Z,-0.20
2017-12-02T21:23:27.617Z,-0.50
2017-12-02T21:25:54.762Z,-0.60
2017-12-02T21:28:21.980Z,-0.60
2017-12-02T21:30:48.367Z,-0.70
2017-12-02T21:33:15.766Z,-0.40
2017-12-02T21:35:42.171Z,-0.40
2017-12-02T21:38:08.564Z,-0.30
2017-12-02T21:40:36.743Z,-0.20
2017-12-02T21:43:03.895Z,-0.20
2017-12-02T21:45:31.047Z,-0.10
2017-12-02T21:47:57.568Z,-0.20
2017-12-02T21:50:29.078Z,-0.10
2017-12-02T21:52:55.534Z,-0.10
2017-12-02T21:55:22.149Z,-0.10
2017-12-02T21:57:48.565Z,-0.10
2017-12-02T22:00:15.210Z,-0.10
2017-12-02T22:02:41.634Z,-0.10
2017-12-02T22:05:08.079Z,-0.30
2017-12-02T22:07:34.579Z,-0.30
2017-12-02T22:10:00.968Z,-0.20
2017-12-02T22:12:27.486Z,-0.10
2017-12-02T22:14:54.927Z,-0.10
2017-12-02T22:17:21.399Z,-0.10
2017-12-02T22:19:47.801Z,-0.10
2017-12-02T22:22:14.220Z,-0.10
2017-12-02T22:24:40.675Z,-0.10
2017-12-02T22:27:07.023Z,-0.20
2017-12-02T22:29:33.439Z,-0.30
2017-12-02T22:32:00.887Z,-0.30
2017-12-02T22:34:27.295Z,-0.30
2017-12-02T22:36:53.740Z,-0.40
2017-12-02T22:39:20.171Z,-0.40
2017-12-02T22:41:46.606Z,-0.40
2017-12-02T22:44:12.999Z,-0.50
2017-12-02T22:46:40.204Z,-0.70
2017-12-02T22:49:06.610Z,-0.70
2017-12-02T22:51:33.363Z,-0.60
2017-12-02T22:53:59.740Z,-0.60
2017-12-02T22:56:26.857Z,-0.50
2017-12-02T22:58:53.258Z,-0.50
2017-12-02T23:01:19.705Z,-0.50
2017-12-02T23:03:46.143Z,-0.50
2017-12-02T23:06:12.583Z,-0.60
2017-12-02T23:08:39.039Z,-0.70
2017-12-02T23:11:05.415Z,-0.60
2017-12-02T23:13:31.792Z,-0.60
2017-12-02T23:15:58.252Z,-0.60
2017-12-02T23:18:25.367Z,-0.70
2017-12-02T23:20:51.779Z,-0.70
2017-12-02T23:23:18.183Z,-0.80
2017-12-02T23:25:44.619Z,-0.90
2017-12-02T23:28:11.049Z,-0.80
2017-12-02T23:30:37.451Z,-0.90
2017-12-02T23:33:04.599Z,-1.00
2017-12-02T23:35:31.740Z,-1.00
2017-12-02T23:37:58.167Z,-1.00
2017-12-02T23:40:24.511Z,-1.10
2017-12-02T23:42:52.672Z,-1.10
2017-12-02T23:45:19.068Z,-1.20
2017-12-02T23:47:48.881Z,-1.20
2017-12-02T23:50:16.724Z,-1.30
2017-12-02T23:52:43.198Z,-1.30
2017-12-02T23:57:51.731Z,-1.30
